Airfield :
LOGIN :

Register | Disclaimer

   EN    FR    IT 

 










Legend :    VFR   Marginal VFR   IFR   Intensive IFR   Very Intensive IFR
Visi :
Ceiling :
>= 8 km
>= 3000ft
5 to 8 km
1000 to 3000 ft
1500m to 5 km
500 to 1000 ft
800 to 1500m
200 to 500 ft
< 800m
< 200 ft
Symbols :   Thunderstorms  Fog  Heavy snow  Heavy precipitations  Wind > 20 kt
SIGMETs :     Misc.  Thunderstorms  Icing  Turbulence  Mountain Waves  Volcanic Ashes






- Airport Elevation : 1548 ft


LKNA - Náměšť Air Base

CURRENT METAR :
  • 120000Z 10007KT CAVOK M05/M06 Q1007 RMK BLU

EXPIRED METARs :
  • 112300Z 11008KT CAVOK M05/M07 Q1008 RMK BLU
  • 112200Z 11008KT CAVOK M04/M07 Q1008 RMK BLU

TAF TAF LKNA
Valid from the 12 at 00:00 until the 13 at 00:00 UTC


112300Z 1200/1300 12008KT CAVOK
BECMG 1202/1204 8000 BKN010
TEMPO 1212/1300 4000 -SN BR BKN008
TEMPO 1215/1300 0800 SN FG OVC004



MET'MAP, your aeronautical weather chart ! - Copyright ORBIFLY December 2007 - Disclaimer

ORBIFLY MET'MAP TEAM :

Programming & Development : Alexandra Zaïnal
Concept & original design : Baudouin d'Aumeries
Assistance for programming : Marc-Olivier Méhu
Technical & hardware support : Manuel Goepfert

Contact : metmap@orbifly.com




SOURCES & CREDITS :

   NOAA